Ibiza, Spain

06:54 AM CEST am 26. August 2016 (GMT +0200)
Ibiza | | Change Station

Höhe 56 ft 38.88 °N, 1.38 °E | Updated 24 minutes ago

Clear
Heiter
66 °F
gefühlte 66 °F
N
4
Wind Wechselnd Wind aus Nord

Heute
Max. -- | schwach -- °F
--% Regenrisiko
Gestern
Max. -- | schwach -- °F
Precip. -- inch
Druck 30.01 inch
Sichtweite -9999.0 Meilen
Wolken
Taupunkt 61 °F
Feuchtigkeit 83%
Regen 0.00 inch
Schneehöhe Nicht verfügbar..
7:18 AM 8:33 PM
Letztes Viertel, 38% visible
METAR LEIB 260430Z 35003KT CAVOK 19/16 Q1016 NOSIG
Druck 30.01 inch
Sichtweite -9999.0 Meilen
Wolken
Taupunkt 61 °F
Feuchtigkeit 83%
Regen 0.00 inch
Schneehöhe Nicht verfügbar..
7:18 AM 8:33 PM
Letztes Viertel, 38% visible
METAR LEIB 260430Z 35003KT CAVOK 19/16 Q1016 NOSIG

10-Day Weather Forecast

×

Almanac

Astronomie

Aug. 26, 2016 Aufgang Untergang
Genaue Zeit
Bürgerliche Dämmerung
Nautische Dämmerung
Astronomische Dämmerung
Mond
Länge des sichtbaren Lichts
Tageslänge
Tomorrow will be .
, % of the Moon is Illuminated

Heutige Rekorde

Country Highs Country Lows

Community

WunderPhotos

Upload Photos

1,935,056 Fotos hochgeladen!

WunderBlog® & News

Nearby

Luftqualität

  Luftqualität LQ Index Schadstoff
Not available.

Schneehöhe

Station Depth Höhe

Erdbebenaktivität

Stadt Distance Mag. Time & Date
Minimum magnitude displayed is 2.5.

küstennahe Wassertemperaturen

Ort Temperatur

Stations

Wetterstationen in der Umgebung

Stationsstandort Temp. Windchill Taupunkt Feuchtigkeit Wind Precip. Höhe Aktualisiert Art